sensor_id;sensor_type;location;lat;lon;timestamp;temperature;humidity
79016;DHT22;72726;44.842;37.556;2023-12-04T00:00:01;13.83;85.90
79016;DHT22;72726;44.842;37.556;2023-12-04T00:01:14;13.84;85.81
79016;DHT22;72726;44.842;37.556;2023-12-04T00:02:15;13.87;85.76
79016;DHT22;72726;44.842;37.556;2023-12-04T00:03:17;13.86;85.65
79016;DHT22;72726;44.842;37.556;2023-12-04T00:04:18;13.87;85.56
79016;DHT22;72726;44.842;37.556;2023-12-04T00:05:20;13.88;85.52
79016;DHT22;72726;44.842;37.556;2023-12-04T00:06:22;13.86;85.42
79016;DHT22;72726;44.842;37.556;2023-12-04T00:07:24;13.86;85.42
79016;DHT22;72726;44.842;37.556;2023-12-04T00:08:25;13.86;85.43
79016;DHT22;72726;44.842;37.556;2023-12-04T00:09:27;13.87;85.40
79016;DHT22;72726;44.842;37.556;2023-12-04T00:10:29;13.83;85.38
79016;DHT22;72726;44.842;37.556;2023-12-04T00:11:30;13.84;85.44
79016;DHT22;72726;44.842;37.556;2023-12-04T00:12:32;13.83;85.49
79016;DHT22;72726;44.842;37.556;2023-12-04T00:13:33;13.80;85.55
79016;DHT22;72726;44.842;37.556;2023-12-04T00:14:35;13.83;85.56
79016;DHT22;72726;44.842;37.556;2023-12-04T00:15:37;13.81;85.56
79016;DHT22;72726;44.842;37.556;2023-12-04T00:16:39;13.81;85.62
79016;DHT22;72726;44.842;37.556;2023-12-04T00:17:40;13.81;85.74
79016;DHT22;72726;44.842;37.556;2023-12-04T00:18:42;13.80;85.76
79016;DHT22;72726;44.842;37.556;2023-12-04T00:19:43;13.81;85.74
79016;DHT22;72726;44.842;37.556;2023-12-04T00:20:45;13.80;85.62
79016;DHT22;72726;44.842;37.556;2023-12-04T00:21:46;13.81;85.70
79016;DHT22;72726;44.842;37.556;2023-12-04T00:22:48;13.78;85.72
79016;DHT22;72726;44.842;37.556;2023-12-04T00:23:50;13.76;85.77
79016;DHT22;72726;44.842;37.556;2023-12-04T00:24:51;13.77;85.70
79016;DHT22;72726;44.842;37.556;2023-12-04T00:25:54;13.76;85.62
79016;DHT22;72726;44.842;37.556;2023-12-04T00:26:56;13.77;85.68
79016;DHT22;72726;44.842;37.556;2023-12-04T00:27:57;13.74;85.67
79016;DHT22;72726;44.842;37.556;2023-12-04T00:28:59;13.73;85.69
79016;DHT22;72726;44.842;37.556;2023-12-04T00:30:00;13.77;85.65
79016;DHT22;72726;44.842;37.556;2023-12-04T00:31:05;13.74;85.51
79016;DHT22;72726;44.842;37.556;2023-12-04T00:32:06;13.74;85.49
79016;DHT22;72726;44.842;37.556;2023-12-04T00:33:08;13.73;85.54
79016;DHT22;72726;44.842;37.556;2023-12-04T00:34:09;13.74;85.56
79016;DHT22;72726;44.842;37.556;2023-12-04T00:35:13;13.74;85.65
79016;DHT22;72726;44.842;37.556;2023-12-04T00:36:14;13.76;85.69
79016;DHT22;72726;44.842;37.556;2023-12-04T00:37:16;13.76;85.62
79016;DHT22;72726;44.842;37.556;2023-12-04T00:38:17;13.74;85.56
79016;DHT22;72726;44.842;37.556;2023-12-04T00:39:19;13.73;85.55
79016;DHT22;72726;44.842;37.556;2023-12-04T00:40:20;13.74;85.51
79016;DHT22;72726;44.842;37.556;2023-12-04T00:41:22;13.71;85.46
79016;DHT22;72726;44.842;37.556;2023-12-04T00:42:23;13.70;85.37
79016;DHT22;72726;44.842;37.556;2023-12-04T00:43:25;13.70;85.45
79016;DHT22;72726;44.842;37.556;2023-12-04T00:44:26;13.69;85.55
79016;DHT22;72726;44.842;37.556;2023-12-04T00:45:28;13.69;85.54
79016;DHT22;72726;44.842;37.556;2023-12-04T00:46:29;13.65;85.60
79016;DHT22;72726;44.842;37.556;2023-12-04T00:47:31;13.67;85.59
79016;DHT22;72726;44.842;37.556;2023-12-04T00:48:32;13.66;85.62
79016;DHT22;72726;44.842;37.556;2023-12-04T00:49:34;13.65;85.55
79016;DHT22;72726;44.842;37.556;2023-12-04T00:50:35;13.62;85.46
79016;DHT22;72726;44.842;37.556;2023-12-04T00:51:38;13.62;85.54
79016;DHT22;72726;44.842;37.556;2023-12-04T00:52:39;13.63;85.54
79016;DHT22;72726;44.842;37.556;2023-12-04T00:53:41;13.63;85.71
79016;DHT22;72726;44.842;37.556;2023-12-04T00:54:42;13.62;85.87
79016;DHT22;72726;44.842;37.556;2023-12-04T00:55:44;13.60;86.00
79016;DHT22;72726;44.842;37.556;2023-12-04T00:56:45;13.58;85.92
79016;DHT22;72726;44.842;37.556;2023-12-04T00:57:47;13.60;85.88
79016;DHT22;72726;44.842;37.556;2023-12-04T00:58:49;13.58;85.88
79016;DHT22;72726;44.842;37.556;2023-12-04T00:59:50;13.55;85.89
79016;DHT22;72726;44.842;37.556;2023-12-04T01:00:52;13.53;85.95
79016;DHT22;72726;44.842;37.556;2023-12-04T01:01:54;13.52;86.04
79016;DHT22;72726;44.842;37.556;2023-12-04T01:02:55;13.50;86.02
79016;DHT22;72726;44.842;37.556;2023-12-04T01:03:57;13.48;86.22
79016;DHT22;72726;44.842;37.556;2023-12-04T01:04:58;13.45;86.26
79016;DHT22;72726;44.842;37.556;2023-12-04T01:06:00;13.45;86.23
79016;DHT22;72726;44.842;37.556;2023-12-04T01:07:01;13.46;86.36
79016;DHT22;72726;44.842;37.556;2023-12-04T01:08:03;13.43;86.60
79016;DHT22;72726;44.842;37.556;2023-12-04T01:09:04;13.43;86.79
79016;DHT22;72726;44.842;37.556;2023-12-04T01:10:07;13.45;87.07
79016;DHT22;72726;44.842;37.556;2023-12-04T01:11:08;13.43;87.05
79016;DHT22;72726;44.842;37.556;2023-12-04T01:12:10;13.45;87.03
79016;DHT22;72726;44.842;37.556;2023-12-04T01:13:11;13.43;86.99
79016;DHT22;72726;44.842;37.556;2023-12-04T01:14:13;13.45;86.95
79016;DHT22;72726;44.842;37.556;2023-12-04T01:15:14;13.42;86.95
79016;DHT22;72726;44.842;37.556;2023-12-04T01:16:16;13.42;87.02
79016;DHT22;72726;44.842;37.556;2023-12-04T01:17:18;13.42;86.94
79016;DHT22;72726;44.842;37.556;2023-12-04T01:18:20;13.40;87.09
79016;DHT22;72726;44.842;37.556;2023-12-04T01:19:21;13.42;87.19
79016;DHT22;72726;44.842;37.556;2023-12-04T01:20:23;13.38;87.17
79016;DHT22;72726;44.842;37.556;2023-12-04T01:21:24;13.39;87.29
79016;DHT22;72726;44.842;37.556;2023-12-04T01:22:26;13.40;87.31
79016;DHT22;72726;44.842;37.556;2023-12-04T01:23:27;13.40;87.33
79016;DHT22;72726;44.842;37.556;2023-12-04T01:24:29;13.40;87.30
79016;DHT22;72726;44.842;37.556;2023-12-04T01:25:30;13.42;87.34
79016;DHT22;72726;44.842;37.556;2023-12-04T01:26:32;13.45;87.41
79016;DHT22;72726;44.842;37.556;2023-12-04T01:27:33;13.43;87.42
79016;DHT22;72726;44.842;37.556;2023-12-04T01:28:38;13.45;87.38
79016;DHT22;72726;44.842;37.556;2023-12-04T01:29:40;13.45;87.44
79016;DHT22;72726;44.842;37.556;2023-12-04T01:30:41;13.45;87.48
79016;DHT22;72726;44.842;37.556;2023-12-04T01:31:43;13.45;87.38
79016;DHT22;72726;44.842;37.556;2023-12-04T01:32:45;13.46;87.39
79016;DHT22;72726;44.842;37.556;2023-12-04T01:33:46;13.49;87.36
79016;DHT22;72726;44.842;37.556;2023-12-04T01:34:48;13.49;87.46
79016;DHT22;72726;44.842;37.556;2023-12-04T01:35:49;13.52;87.40
79016;DHT22;72726;44.842;37.556;2023-12-04T01:36:51;13.52;87.33
79016;DHT22;72726;44.842;37.556;2023-12-04T01:37:52;13.55;87.27
79016;DHT22;72726;44.842;37.556;2023-12-04T01:38:54;13.56;87.25
79016;DHT22;72726;44.842;37.556;2023-12-04T01:39:55;13.59;87.21
79016;DHT22;72726;44.842;37.556;2023-12-04T01:40:57;13.59;87.18
79016;DHT22;72726;44.842;37.556;2023-12-04T01:41:58;13.60;87.11
79016;DHT22;72726;44.842;37.556;2023-12-04T01:42:59;13.65;87.06
79016;DHT22;72726;44.842;37.556;2023-12-04T01:44:01;13.63;87.01
79016;DHT22;72726;44.842;37.556;2023-12-04T01:45:03;13.66;87.04
79016;DHT22;72726;44.842;37.556;2023-12-04T01:46:06;13.66;86.99
79016;DHT22;72726;44.842;37.556;2023-12-04T01:47:08;13.66;86.91
79016;DHT22;72726;44.842;37.556;2023-12-04T01:48:10;13.66;86.85
79016;DHT22;72726;44.842;37.556;2023-12-04T01:49:13;13.69;86.80
79016;DHT22;72726;44.842;37.556;2023-12-04T01:50:16;13.71;86.76
79016;DHT22;72726;44.842;37.556;2023-12-04T01:51:17;13.71;86.68
79016;DHT22;72726;44.842;37.556;2023-12-04T01:52:20;13.71;86.60
79016;DHT22;72726;44.842;37.556;2023-12-04T01:53:22;13.73;86.51
79016;DHT22;72726;44.842;37.556;2023-12-04T01:54:24;13.74;86.46
79016;DHT22;72726;44.842;37.556;2023-12-04T01:55:25;13.74;86.42
79016;DHT22;72726;44.842;37.556;2023-12-04T01:56:28;13.77;86.42
79016;DHT22;72726;44.842;37.556;2023-12-04T01:57:30;13.77;86.35
79016;DHT22;72726;44.842;37.556;2023-12-04T01:58:32;13.74;86.24
79016;DHT22;72726;44.842;37.556;2023-12-04T01:59:34;13.77;86.11
79016;DHT22;72726;44.842;37.556;2023-12-04T02:00:36;13.78;86.04
79016;DHT22;72726;44.842;37.556;2023-12-04T02:01:38;13.78;85.91
79016;DHT22;72726;44.842;37.556;2023-12-04T02:02:41;13.83;85.78
79016;DHT22;72726;44.842;37.556;2023-12-04T02:03:43;13.83;85.72
79016;DHT22;72726;44.842;37.556;2023-12-04T02:04:44;13.84;85.71
79016;DHT22;72726;44.842;37.556;2023-12-04T02:05:47;13.84;85.70
79016;DHT22;72726;44.842;37.556;2023-12-04T02:06:49;13.83;85.67
79016;DHT22;72726;44.842;37.556;2023-12-04T02:07:50;13.86;85.65
79016;DHT22;72726;44.842;37.556;2023-12-04T02:08:52;13.84;85.66
79016;DHT22;72726;44.842;37.556;2023-12-04T02:09:54;13.88;85.62
79016;DHT22;72726;44.842;37.556;2023-12-04T02:10:56;13.88;85.62
79016;DHT22;72726;44.842;37.556;2023-12-04T02:11:58;13.90;85.64
79016;DHT22;72726;44.842;37.556;2023-12-04T02:13:00;13.90;85.65
79016;DHT22;72726;44.842;37.556;2023-12-04T02:14:01;13.90;85.65
79016;DHT22;72726;44.842;37.556;2023-12-04T02:15:03;13.88;85.64
79016;DHT22;72726;44.842;37.556;2023-12-04T02:16:09;13.88;85.63
79016;DHT22;72726;44.842;37.556;2023-12-04T02:17:12;13.90;85.60
79016;DHT22;72726;44.842;37.556;2023-12-04T02:18:14;13.90;85.68
79016;DHT22;72726;44.842;37.556;2023-12-04T02:19:16;13.91;85.65
79016;DHT22;72726;44.842;37.556;2023-12-04T02:20:17;13.94;85.59
79016;DHT22;72726;44.842;37.556;2023-12-04T02:21:19;13.90;85.66
79016;DHT22;72726;44.842;37.556;2023-12-04T02:22:20;13.93;85.65
79016;DHT22;72726;44.842;37.556;2023-12-04T02:23:22;13.93;85.71
79016;DHT22;72726;44.842;37.556;2023-12-04T02:24:24;13.91;85.73
79016;DHT22;72726;44.842;37.556;2023-12-04T02:25:25;13.90;85.82
79016;DHT22;72726;44.842;37.556;2023-12-04T02:26:34;13.90;85.85
79016;DHT22;72726;44.842;37.556;2023-12-04T02:27:47;13.91;85.89
79016;DHT22;72726;44.842;37.556;2023-12-04T02:28:55;13.91;85.90
79016;DHT22;72726;44.842;37.556;2023-12-04T02:29:59;13.91;86.02
79016;DHT22;72726;44.842;37.556;2023-12-04T02:31:04;13.90;86.06
79016;DHT22;72726;44.842;37.556;2023-12-04T02:32:08;13.88;86.07
79016;DHT22;72726;44.842;37.556;2023-12-04T02:33:13;13.88;86.14
79016;DHT22;72726;44.842;37.556;2023-12-04T02:34:15;13.90;86.12
79016;DHT22;72726;44.842;37.556;2023-12-04T02:35:23;13.88;86.18
79016;DHT22;72726;44.842;37.556;2023-12-04T02:36:26;13.88;86.24
79016;DHT22;72726;44.842;37.556;2023-12-04T02:37:28;13.88;86.26
79016;DHT22;72726;44.842;37.556;2023-12-04T02:38:30;13.90;86.25
79016;DHT22;72726;44.842;37.556;2023-12-04T02:39:32;13.88;86.29
79016;DHT22;72726;44.842;37.556;2023-12-04T02:40:33;13.90;86.30
79016;DHT22;72726;44.842;37.556;2023-12-04T02:41:35;13.87;86.30
79016;DHT22;72726;44.842;37.556;2023-12-04T02:42:36;13.87;86.31
79016;DHT22;72726;44.842;37.556;2023-12-04T02:43:38;13.87;86.34
79016;DHT22;72726;44.842;37.556;2023-12-04T02:44:39;13.88;86.30
79016;DHT22;72726;44.842;37.556;2023-12-04T02:45:41;13.90;86.29
79016;DHT22;72726;44.842;37.556;2023-12-04T02:46:43;13.90;86.30
79016;DHT22;72726;44.842;37.556;2023-12-04T02:47:44;13.90;86.30
79016;DHT22;72726;44.842;37.556;2023-12-04T02:48:46;13.90;86.30
79016;DHT22;72726;44.842;37.556;2023-12-04T02:49:47;13.90;86.27
79016;DHT22;72726;44.842;37.556;2023-12-04T02:50:49;13.94;86.27
79016;DHT22;72726;44.842;37.556;2023-12-04T02:51:50;13.93;86.25
79016;DHT22;72726;44.842;37.556;2023-12-04T02:52:52;13.93;86.22
79016;DHT22;72726;44.842;37.556;2023-12-04T02:53:53;13.94;86.16
79016;DHT22;72726;44.842;37.556;2023-12-04T02:54:55;13.91;86.20
79016;DHT22;72726;44.842;37.556;2023-12-04T02:55:56;13.91;86.22
79016;DHT22;72726;44.842;37.556;2023-12-04T02:56:58;13.93;86.02
79016;DHT22;72726;44.842;37.556;2023-12-04T02:57:59;13.86;85.49
79016;DHT22;72726;44.842;37.556;2023-12-04T02:59:01;13.77;85.53
79016;DHT22;72726;44.842;37.556;2023-12-04T03:00:03;13.76;85.63
79016;DHT22;72726;44.842;37.556;2023-12-04T03:01:06;13.73;85.73
79016;DHT22;72726;44.842;37.556;2023-12-04T03:02:07;13.69;85.88
79016;DHT22;72726;44.842;37.556;2023-12-04T03:03:09;13.69;85.91
79016;DHT22;72726;44.842;37.556;2023-12-04T03:04:10;13.65;86.03
79016;DHT22;72726;44.842;37.556;2023-12-04T03:05:12;13.59;85.81
79016;DHT22;72726;44.842;37.556;2023-12-04T03:06:14;13.49;85.37
79016;DHT22;72726;44.842;37.556;2023-12-04T03:07:17;13.42;84.85
79016;DHT22;72726;44.842;37.556;2023-12-04T03:08:21;13.29;84.10
79016;DHT22;72726;44.842;37.556;2023-12-04T03:09:22;13.15;84.26
79016;DHT22;72726;44.842;37.556;2023-12-04T03:10:24;13.04;84.12
79016;DHT22;72726;44.842;37.556;2023-12-04T03:11:25;12.88;83.45
79016;DHT22;72726;44.842;37.556;2023-12-04T03:12:27;12.72;84.05
79016;DHT22;72726;44.842;37.556;2023-12-04T03:13:29;12.59;84.35
79016;DHT22;72726;44.842;37.556;2023-12-04T03:14:30;12.48;84.54
79016;DHT22;72726;44.842;37.556;2023-12-04T03:15:32;12.35;84.54
79016;DHT22;72726;44.842;37.556;2023-12-04T03:16:33;12.22;84.53
79016;DHT22;72726;44.842;37.556;2023-12-04T03:17:35;12.10;84.96
79016;DHT22;72726;44.842;37.556;2023-12-04T03:18:36;11.95;85.10
79016;DHT22;72726;44.842;37.556;2023-12-04T03:19:38;11.85;85.47
79016;DHT22;72726;44.842;37.556;2023-12-04T03:20:39;11.76;85.84
79016;DHT22;72726;44.842;37.556;2023-12-04T03:21:41;11.66;86.21
79016;DHT22;72726;44.842;37.556;2023-12-04T03:22:42;11.59;86.39
79016;DHT22;72726;44.842;37.556;2023-12-04T03:23:44;11.55;86.63
79016;DHT22;72726;44.842;37.556;2023-12-04T03:24:45;11.47;86.84
79016;DHT22;72726;44.842;37.556;2023-12-04T03:25:47;11.46;87.09
79016;DHT22;72726;44.842;37.556;2023-12-04T03:26:49;11.46;87.06
79016;DHT22;72726;44.842;37.556;2023-12-04T03:27:50;11.36;87.21
79016;DHT22;72726;44.842;37.556;2023-12-04T03:28:52;11.35;87.38
79016;DHT22;72726;44.842;37.556;2023-12-04T03:29:53;11.31;87.14
79016;DHT22;72726;44.842;37.556;2023-12-04T03:30:56;11.26;87.14
79016;DHT22;72726;44.842;37.556;2023-12-04T03:31:58;11.19;87.23
79016;DHT22;72726;44.842;37.556;2023-12-04T03:32:59;11.16;87.45
79016;DHT22;72726;44.842;37.556;2023-12-04T03:34:00;11.15;87.62
79016;DHT22;72726;44.842;37.556;2023-12-04T03:35:02;11.11;87.73
79016;DHT22;72726;44.842;37.556;2023-12-04T03:36:04;11.10;87.93
79016;DHT22;72726;44.842;37.556;2023-12-04T03:37:06;11.08;87.93
79016;DHT22;72726;44.842;37.556;2023-12-04T03:38:07;11.02;87.89
79016;DHT22;72726;44.842;37.556;2023-12-04T03:39:09;11.04;88.01
79016;DHT22;72726;44.842;37.556;2023-12-04T03:40:11;11.00;88.16
79016;DHT22;72726;44.842;37.556;2023-12-04T03:41:15;11.00;88.22
79016;DHT22;72726;44.842;37.556;2023-12-04T03:42:17;10.97;88.09
79016;DHT22;72726;44.842;37.556;2023-12-04T03:43:18;10.94;88.22
79016;DHT22;72726;44.842;37.556;2023-12-04T03:44:20;10.90;88.28
79016;DHT22;72726;44.842;37.556;2023-12-04T03:45:21;10.88;88.25
79016;DHT22;72726;44.842;37.556;2023-12-04T03:46:23;10.85;88.33
79016;DHT22;72726;44.842;37.556;2023-12-04T03:47:25;10.81;88.43
79016;DHT22;72726;44.842;37.556;2023-12-04T03:48:26;10.77;88.46
79016;DHT22;72726;44.842;37.556;2023-12-04T03:49:28;10.76;88.55
79016;DHT22;72726;44.842;37.556;2023-12-04T03:50:29;10.70;88.48
79016;DHT22;72726;44.842;37.556;2023-12-04T03:51:31;10.61;88.34
79016;DHT22;72726;44.842;37.556;2023-12-04T03:52:32;10.55;88.48
79016;DHT22;72726;44.842;37.556;2023-12-04T03:53:34;10.49;88.75
79016;DHT22;72726;44.842;37.556;2023-12-04T03:54:35;10.46;88.87
79016;DHT22;72726;44.842;37.556;2023-12-04T03:55:37;10.42;88.90
79016;DHT22;72726;44.842;37.556;2023-12-04T03:56:38;10.40;89.05
79016;DHT22;72726;44.842;37.556;2023-12-04T03:57:39;10.38;88.92
79016;DHT22;72726;44.842;37.556;2023-12-04T03:58:41;10.33;89.07
79016;DHT22;72726;44.842;37.556;2023-12-04T03:59:43;10.32;89.13
79016;DHT22;72726;44.842;37.556;2023-12-04T04:00:46;10.29;89.11
79016;DHT22;72726;44.842;37.556;2023-12-04T04:01:47;10.29;89.17
79016;DHT22;72726;44.842;37.556;2023-12-04T04:02:49;10.26;89.04
79016;DHT22;72726;44.842;37.556;2023-12-04T04:03:50;10.25;89.16
79016;DHT22;72726;44.842;37.556;2023-12-04T04:04:52;10.23;89.44
79016;DHT22;72726;44.842;37.556;2023-12-04T04:05:53;10.26;89.49
79016;DHT22;72726;44.842;37.556;2023-12-04T04:06:55;10.22;89.46
79016;DHT22;72726;44.842;37.556;2023-12-04T04:07:56;10.25;89.44
79016;DHT22;72726;44.842;37.556;2023-12-04T04:08:58;10.21;89.48
79016;DHT22;72726;44.842;37.556;2023-12-04T04:09:59;10.19;89.47
79016;DHT22;72726;44.842;37.556;2023-12-04T04:11:01;10.16;89.43
79016;DHT22;72726;44.842;37.556;2023-12-04T04:12:03;10.12;89.61
79016;DHT22;72726;44.842;37.556;2023-12-04T04:13:05;10.08;89.72
79016;DHT22;72726;44.842;37.556;2023-12-04T04:14:06;10.08;89.85
79016;DHT22;72726;44.842;37.556;2023-12-04T04:15:08;10.02;89.89
79016;DHT22;72726;44.842;37.556;2023-12-04T04:16:14;10.02;90.02
79016;DHT22;72726;44.842;37.556;2023-12-04T04:17:17;9.97;90.18
79016;DHT22;72726;44.842;37.556;2023-12-04T04:18:18;9.97;90.15
79016;DHT22;72726;44.842;37.556;2023-12-04T04:19:19;9.91;90.13
79016;DHT22;72726;44.842;37.556;2023-12-04T04:20:22;9.88;90.33
79016;DHT22;72726;44.842;37.556;2023-12-04T04:21:23;9.85;90.30
79016;DHT22;72726;44.842;37.556;2023-12-04T04:22:24;9.80;90.44
79016;DHT22;72726;44.842;37.556;2023-12-04T04:23:26;9.78;90.51
79016;DHT22;72726;44.842;37.556;2023-12-04T04:24:28;9.74;90.44
79016;DHT22;72726;44.842;37.556;2023-12-04T04:25:30;9.71;90.66
79016;DHT22;72726;44.842;37.556;2023-12-04T04:26:31;9.70;90.74
79016;DHT22;72726;44.842;37.556;2023-12-04T04:27:33;9.66;90.77
79016;DHT22;72726;44.842;37.556;2023-12-04T04:28:34;9.61;90.90
79016;DHT22;72726;44.842;37.556;2023-12-04T04:29:36;9.63;90.99
79016;DHT22;72726;44.842;37.556;2023-12-04T04:30:37;9.58;91.16
79016;DHT22;72726;44.842;37.556;2023-12-04T04:31:39;9.54;91.31
79016;DHT22;72726;44.842;37.556;2023-12-04T04:32:41;9.54;91.46
79016;DHT22;72726;44.842;37.556;2023-12-04T04:33:42;9.56;91.40
79016;DHT22;72726;44.842;37.556;2023-12-04T04:34:44;9.53;91.46
79016;DHT22;72726;44.842;37.556;2023-12-04T04:35:45;9.53;91.39
79016;DHT22;72726;44.842;37.556;2023-12-04T04:36:47;9.50;91.54
79016;DHT22;72726;44.842;37.556;2023-12-04T04:37:48;9.50;91.47
79016;DHT22;72726;44.842;37.556;2023-12-04T04:38:50;9.50;91.41
79016;DHT22;72726;44.842;37.556;2023-12-04T04:39:51;9.47;91.26
79016;DHT22;72726;44.842;37.556;2023-12-04T04:40:53;9.43;91.25
79016;DHT22;72726;44.842;37.556;2023-12-04T04:41:54;9.44;91.47
79016;DHT22;72726;44.842;37.556;2023-12-04T04:42:56;9.44;91.58
79016;DHT22;72726;44.842;37.556;2023-12-04T04:43:57;9.47;91.55
79016;DHT22;72726;44.842;37.556;2023-12-04T04:44:58;9.47;91.58
79016;DHT22;72726;44.842;37.556;2023-12-04T04:46:00;9.51;91.58
79016;DHT22;72726;44.842;37.556;2023-12-04T04:47:01;9.53;91.55
79016;DHT22;72726;44.842;37.556;2023-12-04T04:48:03;9.56;91.51
79016;DHT22;72726;44.842;37.556;2023-12-04T04:49:05;9.54;91.39
79016;DHT22;72726;44.842;37.556;2023-12-04T04:50:10;9.53;91.18
79016;DHT22;72726;44.842;37.556;2023-12-04T04:51:11;9.54;91.31
79016;DHT22;72726;44.842;37.556;2023-12-04T04:52:12;9.56;91.40
79016;DHT22;72726;44.842;37.556;2023-12-04T04:53:14;9.54;91.08
79016;DHT22;72726;44.842;37.556;2023-12-04T04:54:15;9.53;90.87
79016;DHT22;72726;44.842;37.556;2023-12-04T04:55:17;9.50;90.53
79016;DHT22;72726;44.842;37.556;2023-12-04T04:56:18;9.50;90.38
79016;DHT22;72726;44.842;37.556;2023-12-04T04:57:20;9.49;90.52
79016;DHT22;72726;44.842;37.556;2023-12-04T04:58:21;9.46;90.40
79016;DHT22;72726;44.842;37.556;2023-12-04T04:59:23;9.46;90.43
79016;DHT22;72726;44.842;37.556;2023-12-04T05:00:24;9.46;90.38
79016;DHT22;72726;44.842;37.556;2023-12-04T05:01:26;9.44;90.26
79016;DHT22;72726;44.842;37.556;2023-12-04T05:02:27;9.42;90.27
79016;DHT22;72726;44.842;37.556;2023-12-04T05:03:29;9.39;90.24
79016;DHT22;72726;44.842;37.556;2023-12-04T05:04:31;9.36;89.96
79016;DHT22;72726;44.842;37.556;2023-12-04T05:05:32;9.33;89.86
79016;DHT22;72726;44.842;37.556;2023-12-04T05:06:34;9.30;89.88
79016;DHT22;72726;44.842;37.556;2023-12-04T05:07:35;9.32;89.92
79016;DHT22;72726;44.842;37.556;2023-12-04T05:08:37;9.30;89.92
79016;DHT22;72726;44.842;37.556;2023-12-04T05:09:38;9.32;89.95
79016;DHT22;72726;44.842;37.556;2023-12-04T05:10:40;9.30;90.01
79016;DHT22;72726;44.842;37.556;2023-12-04T05:11:41;9.26;89.87
79016;DHT22;72726;44.842;37.556;2023-12-04T05:12:43;9.26;89.93
79016;DHT22;72726;44.842;37.556;2023-12-04T05:13:45;9.26;90.00
79016;DHT22;72726;44.842;37.556;2023-12-04T05:14:46;9.25;89.92
79016;DHT22;72726;44.842;37.556;2023-12-04T05:15:49;9.25;90.00
79016;DHT22;72726;44.842;37.556;2023-12-04T05:16:51;9.23;90.10
79016;DHT22;72726;44.842;37.556;2023-12-04T05:17:52;9.22;90.06
79016;DHT22;72726;44.842;37.556;2023-12-04T05:18:54;9.18;90.04
79016;DHT22;72726;44.842;37.556;2023-12-04T05:19:55;9.16;90.17
79016;DHT22;72726;44.842;37.556;2023-12-04T05:20:57;9.14;90.05
79016;DHT22;72726;44.842;37.556;2023-12-04T05:21:59;9.11;90.14
79016;DHT22;72726;44.842;37.556;2023-12-04T05:23:00;9.07;90.17
79016;DHT22;72726;44.842;37.556;2023-12-04T05:24:02;9.07;90.25
79016;DHT22;72726;44.842;37.556;2023-12-04T05:25:04;9.08;90.32
79016;DHT22;72726;44.842;37.556;2023-12-04T05:26:06;9.04;90.34
79016;DHT22;72726;44.842;37.556;2023-12-04T05:27:08;9.04;90.60
79016;DHT22;72726;44.842;37.556;2023-12-04T05:28:10;9.00;90.59
79016;DHT22;72726;44.842;37.556;2023-12-04T05:29:11;9.01;90.67
79016;DHT22;72726;44.842;37.556;2023-12-04T05:30:13;9.01;90.72
79016;DHT22;72726;44.842;37.556;2023-12-04T05:31:14;8.94;90.73
79016;DHT22;72726;44.842;37.556;2023-12-04T05:32:16;8.95;90.86
79016;DHT22;72726;44.842;37.556;2023-12-04T05:33:17;8.89;90.81
79016;DHT22;72726;44.842;37.556;2023-12-04T05:34:19;8.91;90.91
79016;DHT22;72726;44.842;37.556;2023-12-04T05:35:20;8.89;91.07
79016;DHT22;72726;44.842;37.556;2023-12-04T05:36:22;8.85;91.10
79016;DHT22;72726;44.842;37.556;2023-12-04T05:37:23;8.89;91.24
79016;DHT22;72726;44.842;37.556;2023-12-04T05:38:25;8.88;91.20
79016;DHT22;72726;44.842;37.556;2023-12-04T05:39:26;8.89;91.21
79016;DHT22;72726;44.842;37.556;2023-12-04T05:40:28;8.87;91.20
79016;DHT22;72726;44.842;37.556;2023-12-04T05:41:29;8.84;91.26
79016;DHT22;72726;44.842;37.556;2023-12-04T05:42:31;8.83;91.05
79016;DHT22;72726;44.842;37.556;2023-12-04T05:43:32;8.81;90.87
79016;DHT22;72726;44.842;37.556;2023-12-04T05:44:34;8.78;90.80
79016;DHT22;72726;44.842;37.556;2023-12-04T05:45:36;8.78;90.99
79016;DHT22;72726;44.842;37.556;2023-12-04T05:46:37;8.80;90.95
79016;DHT22;72726;44.842;37.556;2023-12-04T05:47:39;8.81;91.01
79016;DHT22;72726;44.842;37.556;2023-12-04T05:48:40;8.81;90.96
79016;DHT22;72726;44.842;37.556;2023-12-04T05:49:42;8.80;90.89
79016;DHT22;72726;44.842;37.556;2023-12-04T05:50:43;8.80;90.95
79016;DHT22;72726;44.842;37.556;2023-12-04T05:51:45;8.80;90.91
79016;DHT22;72726;44.842;37.556;2023-12-04T05:52:46;8.80;90.80
79016;DHT22;72726;44.842;37.556;2023-12-04T05:53:48;8.80;90.79
79016;DHT22;72726;44.842;37.556;2023-12-04T05:54:49;8.77;90.76
79016;DHT22;72726;44.842;37.556;2023-12-04T05:55:51;8.81;90.83
79016;DHT22;72726;44.842;37.556;2023-12-04T05:56:52;8.77;90.87
79016;DHT22;72726;44.842;37.556;2023-12-04T05:57:54;8.75;90.64
79016;DHT22;72726;44.842;37.556;2023-12-04T05:58:55;8.73;90.65
79016;DHT22;72726;44.842;37.556;2023-12-04T05:59:58;8.73;91.02
79016;DHT22;72726;44.842;37.556;2023-12-04T06:01:01;8.70;90.95
79016;DHT22;72726;44.842;37.556;2023-12-04T06:02:02;8.70;90.99
79016;DHT22;72726;44.842;37.556;2023-12-04T06:03:04;8.67;90.86
79016;DHT22;72726;44.842;37.556;2023-12-04T06:04:06;8.66;91.00
79016;DHT22;72726;44.842;37.556;2023-12-04T06:05:08;8.64;91.10
79016;DHT22;72726;44.842;37.556;2023-12-04T06:06:09;8.63;91.13
79016;DHT22;72726;44.842;37.556;2023-12-04T06:07:11;8.63;91.20
79016;DHT22;72726;44.842;37.556;2023-12-04T06:08:12;8.60;91.21
79016;DHT22;72726;44.842;37.556;2023-12-04T06:09:14;8.59;91.24
79016;DHT22;72726;44.842;37.556;2023-12-04T06:10:18;8.59;91.09
79016;DHT22;72726;44.842;37.556;2023-12-04T06:11:19;8.59;91.09
79016;DHT22;72726;44.842;37.556;2023-12-04T06:12:21;8.54;91.00
79016;DHT22;72726;44.842;37.556;2023-12-04T06:13:22;8.54;91.03
79016;DHT22;72726;44.842;37.556;2023-12-04T06:14:24;8.57;91.16
79016;DHT22;72726;44.842;37.556;2023-12-04T06:15:25;8.59;91.18
79016;DHT22;72726;44.842;37.556;2023-12-04T06:16:27;8.56;91.07
79016;DHT22;72726;44.842;37.556;2023-12-04T06:17:28;8.54;90.92
79016;DHT22;72726;44.842;37.556;2023-12-04T06:18:30;8.57;90.96
79016;DHT22;72726;44.842;37.556;2023-12-04T06:19:31;8.54;90.93
79016;DHT22;72726;44.842;37.556;2023-12-04T06:20:33;8.56;90.91
79016;DHT22;72726;44.842;37.556;2023-12-04T06:21:35;8.54;90.99
79016;DHT22;72726;44.842;37.556;2023-12-04T06:22:36;8.54;91.05
79016;DHT22;72726;44.842;37.556;2023-12-04T06:23:38;8.59;91.06
79016;DHT22;72726;44.842;37.556;2023-12-04T06:24:40;8.59;91.00
79016;DHT22;72726;44.842;37.556;2023-12-04T06:25:42;8.57;90.93